Time;durP1;ratioP1;P1;durP2;ratioP2;P2;SDS_P1;SDS_P2;PMS_P1;PMS_P2;Temp;Humidity;BMP_temperature;BMP_pressure;BME280_temperature;BME280_humidity;BME280_pressure;Samples;Min_cycle;Max_cycle;Signal;HPM_P1;HPM_P2
2022/05/17 00:00:10;;;;;;;5.73;3.20;;;;;;;17.56;57.67;99267.78;5111172;28;20642;-89
2022/05/17 00:02:37;;;;;;;6.17;3.67;;;;;;;17.53;57.21;99270.69;5111258;28;20236;-86
2022/05/17 00:05:05;;;;;;;5.30;3.63;;;;;;;17.48;57.50;99259.16;5111131;28;20471;-85
2022/05/17 00:07:34;;;;;;;4.60;3.37;;;;;;;17.43;57.85;99270.78;5111131;28;20221;-85
2022/05/17 00:10:00;;;;;;;5.27;3.77;;;;;;;17.46;57.61;99268.88;5111086;28;20232;-90
2022/05/17 00:12:27;;;;;;;4.17;3.30;;;;;;;17.42;57.96;99263.16;5110895;28;20224;-89
2022/05/17 00:14:54;;;;;;;4.73;3.50;;;;;;;17.40;58.01;99265.91;5110823;28;20239;-89
2022/05/17 00:17:21;;;;;;;8.13;3.90;;;;;;;17.35;58.42;99259.56;5110987;28;20220;-90
2022/05/17 00:19:48;;;;;;;8.67;4.10;;;;;;;17.35;58.87;99262.97;5110885;28;20228;-90
2022/05/17 00:22:15;;;;;;;5.83;3.93;;;;;;;17.32;59.00;99258.09;5110892;27;20219;-85
2022/05/17 00:24:44;;;;;;;8.97;4.40;;;;;;;17.31;59.11;99255.66;5110782;28;20212;-85
2022/05/17 00:27:11;;;;;;;6.07;4.17;;;;;;;17.25;59.63;99251.91;5110856;28;20228;-85
2022/05/17 00:29:38;;;;;;;7.33;4.07;;;;;;;17.25;60.33;99251.06;5110643;28;20242;-85
2022/05/17 00:32:05;;;;;;;6.07;4.10;;;;;;;17.22;60.71;99247.03;5110343;28;20217;-86
2022/05/17 00:34:32;;;;;;;5.70;4.50;;;;;;;17.17;61.10;99246.66;5110723;28;20213;-89
2022/05/17 00:36:59;;;;;;;5.63;4.73;;;;;;;17.17;61.61;99244.88;5110566;28;20196;-90
2022/05/17 00:39:26;;;;;;;9.07;4.90;;;;;;;17.17;61.65;99238.91;5110859;28;20209;-89
2022/05/17 00:41:54;;;;;;;5.90;4.53;;;;;;;17.16;62.06;99238.09;5110240;28;20697;-90
2022/05/17 00:47:11;;;;;;;7.47;4.47;;;;;;;17.14;62.09;99239.22;5110442;28;20343;-90
2022/05/17 00:49:41;;;;;;;8.30;4.63;;;;;;;17.14;62.56;99234.84;5110409;28;20699;-84
2022/05/17 00:52:13;;;;;;;7.23;5.40;;;;;;;17.13;62.28;99228.06;5110339;28;20653;-90
2022/05/17 00:54:42;;;;;;;7.47;5.07;;;;;;;17.15;62.58;99230.50;5110580;28;20746;-84
2022/05/17 00:57:19;;;;;;;5.63;4.80;;;;;;;17.09;63.15;99234.47;5109476;28;20599;-91
2022/05/17 00:59:46;;;;;;;7.83;5.00;;;;;;;17.06;63.24;99231.41;5110671;28;20596;-92
2022/05/17 01:02:13;;;;;;;5.40;4.90;;;;;;;17.05;63.21;99229.78;5110186;28;20215;-91
2022/05/17 01:04:41;;;;;;;7.07;5.10;;;;;;;16.98;63.45;99227.75;5110362;28;20211;-91
2022/05/17 01:07:11;;;;;;;7.00;5.20;;;;;;;16.95;64.10;99227.25;5110243;28;20224;-85
2022/05/17 01:09:38;;;;;;;7.77;5.30;;;;;;;16.88;64.59;99223.66;5110588;28;20193;-85
2022/05/17 01:12:06;;;;;;;6.30;4.93;;;;;;;16.95;64.10;99228.06;5110170;28;20203;-85
2022/05/17 01:17:24;;;;;;;6.70;4.93;;;;;;;16.93;64.30;99219.69;5099486;28;20302;-91
2022/05/17 01:19:51;;;;;;;7.70;5.27;;;;;;;16.89;64.54;99215.75;5110117;28;20200;-91
2022/05/17 01:22:19;;;;;;;7.97;4.93;;;;;;;16.82;64.69;99219.88;5110690;28;20213;-85
2022/05/17 01:24:46;;;;;;;6.53;5.13;;;;;;;16.81;64.27;99222.59;5110133;28;20197;-84
2022/05/17 01:27:17;;;;;;;6.97;5.10;;;;;;;16.77;64.39;99216.13;5110350;28;20216;-85
2022/05/17 01:29:46;;;;;;;7.00;5.27;;;;;;;16.75;64.06;99219.66;5110607;28;20201;-85
2022/05/17 01:32:14;;;;;;;8.83;5.30;;;;;;;16.78;64.67;99213.38;5109995;28;20221;-91
2022/05/17 01:34:42;;;;;;;7.40;5.00;;;;;;;16.78;64.26;99213.38;5110430;28;20252;-91
2022/05/17 01:37:10;;;;;;;7.73;5.30;;;;;;;16.76;64.33;99212.75;5109909;28;20220;-90
2022/05/17 01:39:38;;;;;;;6.50;5.60;;;;;;;16.71;64.57;99212.31;5109873;28;20193;-90
2022/05/17 01:42:06;;;;;;;7.97;5.00;;;;;;;16.69;64.42;99211.66;5110300;28;20204;-84
2022/05/17 01:44:34;;;;;;;8.60;5.13;;;;;;;16.70;64.70;99216.69;5110283;28;20605;-84
2022/05/17 01:47:01;;;;;;;6.90;5.20;;;;;;;16.69;65.13;99206.50;5109657;28;20236;-90
2022/05/17 01:49:28;;;;;;;7.60;5.20;;;;;;;16.69;65.43;99211.66;5110306;28;20212;-85
2022/05/17 01:51:55;;;;;;;6.80;5.17;;;;;;;16.59;65.11;99208.34;5110001;28;20194;-84
2022/05/17 01:54:23;;;;;;;7.17;5.20;;;;;;;16.57;65.87;99202.50;5109685;28;20211;-89
2022/05/17 01:56:51;;;;;;;8.00;5.17;;;;;;;16.55;65.43;99201.84;5109605;28;20796;-85
2022/05/17 01:59:18;;;;;;;6.27;5.00;;;;;;;16.46;65.21;99204.34;5109939;28;20471;-90
2022/05/17 02:01:45;;;;;;;7.40;5.27;;;;;;;16.45;65.25;99205.28;5109486;28;20201;-84
2022/05/17 02:04:13;;;;;;;7.40;5.17;;;;;;;16.47;65.70;99200.81;5110225;28;20244;-85
2022/05/17 02:06:42;;;;;;;6.77;4.90;;;;;;;16.43;65.62;99199.47;5109788;28;20556;-91
2022/05/17 02:09:09;;;;;;;9.33;5.10;;;;;;;16.36;65.22;99198.44;5112753;28;20226;-90
2022/05/17 02:11:35;;;;;;;6.37;5.03;;;;;;;16.34;65.89;99200.34;5113301;28;20700;-90
2022/05/17 02:14:04;;;;;;;9.30;4.90;;;;;;;16.29;65.73;99199.97;5113356;28;20221;-89
2022/05/17 02:16:34;;;;;;;7.97;4.80;;;;;;;16.26;65.79;99192.50;5113096;28;20236;-84
2022/05/17 02:19:00;;;;;;;5.50;4.80;;;;;;;16.23;65.71;99197.94;5113270;28;20686;-84
2022/05/17 02:21:27;;;;;;;6.57;5.20;;;;;;;16.24;65.58;99204.75;5113079;27;20553;-90
2022/05/17 02:23:54;;;;;;;8.00;4.77;;;;;;;16.18;65.82;99200.97;5113030;28;20221;-91
2022/05/17 02:26:21;;;;;;;7.33;5.10;;;;;;;16.17;66.19;99198.53;5113075;28;20197;-84
2022/05/17 02:28:48;;;;;;;7.63;5.00;;;;;;;16.14;65.91;99199.63;5113053;28;20232;-84
2022/05/17 02:31:17;;;;;;;6.87;5.00;;;;;;;16.12;66.06;99200.75;5113171;28;20201;-90
2022/05/17 02:33:44;;;;;;;6.67;4.87;;;;;;;16.09;66.53;99201.84;5113378;28;20706;-84
2022/05/17 02:36:11;;;;;;;7.83;5.00;;;;;;;16.09;66.50;99206.19;5112869;28;20228;-90
2022/05/17 02:38:38;;;;;;;6.10;5.17;;;;;;;16.03;66.96;99208.38;5112997;28;20218;-85
2022/05/17 02:41:04;;;;;;;5.53;4.63;;;;;;;15.98;67.33;99205.41;5112763;28;20258;-90
2022/05/17 02:43:31;;;;;;;8.97;5.00;;;;;;;15.95;67.43;99200.53;5113037;28;20463;-89
2022/05/17 02:45:58;;;;;;;6.40;4.73;;;;;;;15.90;67.66;99202.72;5112547;28;20197;-83
2022/05/17 02:48:26;;;;;;;6.27;4.70;;;;;;;15.88;67.78;99204.63;5112688;27;20232;-89
2022/05/17 02:50:53;;;;;;;7.33;5.10;;;;;;;15.81;67.52;99208.72;5112745;27;20656;-89
2022/05/17 02:53:21;;;;;;;6.53;4.87;;;;;;;15.77;68.43;99212.56;5112585;28;20210;-89
2022/05/17 02:55:48;;;;;;;8.70;5.40;;;;;;;15.74;68.33;99207.69;5112323;28;20620;-84
2022/05/17 02:58:14;;;;;;;8.20;5.37;;;;;;;15.75;68.67;99209.31;5112473;28;20757;-83
2022/05/17 03:00:42;;;;;;;10.67;5.23;;;;;;;15.65;68.85;99208.47;5112429;28;20705;-84
2022/05/17 03:03:10;;;;;;;7.93;5.10;;;;;;;15.60;68.91;99211.47;5112469;28;20308;-84
2022/05/17 03:05:38;;;;;;;9.00;5.27;;;;;;;15.57;69.27;99210.00;5112173;27;20690;-89
2022/05/17 03:08:06;;;;;;;7.47;5.00;;;;;;;15.54;68.96;99201.75;5112407;28;20221;-83
2022/05/17 03:10:33;;;;;;;6.70;5.30;;;;;;;15.56;69.15;99210.97;5112194;28;20201;-90
2022/05/17 03:13:00;;;;;;;10.20;5.57;;;;;;;15.51;69.49;99202.03;5112057;28;20225;-84
2022/05/17 03:15:27;;;;;;;10.20;5.17;;;;;;;15.52;69.22;99198.47;5111942;28;20201;-89
2022/05/17 03:17:53;;;;;;;10.27;5.23;;;;;;;15.52;69.57;99203.63;5112325;28;20225;-89
2022/05/17 03:20:20;;;;;;;7.20;5.10;;;;;;;15.53;69.93;99200.94;5110889;28;20205;-83
2022/05/17 03:22:49;;;;;;;7.57;5.07;;;;;;;15.48;70.10;99204.88;5111961;28;20239;-90
2022/05/17 03:25:15;;;;;;;5.87;4.90;;;;;;;15.49;70.09;99203.91;5112006;28;20197;-83
2022/05/17 03:27:42;;;;;;;7.37;4.90;;;;;;;15.48;70.59;99203.09;5111905;28;20220;-89
2022/05/17 03:30:10;;;;;;;6.73;4.80;;;;;;;15.51;70.49;99207.97;5111703;28;20784;-83
2022/05/17 03:32:37;;;;;;;7.10;5.00;;;;;;;15.50;70.39;99196.03;5111442;28;20228;-83
2022/05/17 03:35:05;;;;;;;9.73;5.20;;;;;;;15.51;70.72;99209.75;5111523;28;20212;-89
2022/05/17 03:37:32;;;;;;;7.90;5.13;;;;;;;15.51;70.86;99207.16;5111402;28;20256;-88
2022/05/17 03:40:00;;;;;;;7.77;5.10;;;;;;;15.49;70.77;99212.44;5111426;28;20709;-89
2022/05/17 03:42:27;;;;;;;9.23;4.83;;;;;;;15.52;70.46;99214.75;5111361;28;20220;-86
2022/05/17 03:44:54;;;;;;;7.27;5.10;;;;;;;15.60;70.93;99212.28;5111304;28;20193;-89
2022/05/17 03:47:21;;;;;;;6.97;4.97;;;;;;;15.61;71.18;99219.06;5111583;28;20228;-83
2022/05/17 03:49:47;;;;;;;8.27;5.27;;;;;;;15.65;70.99;99213.63;5111433;28;20205;-85
2022/05/17 03:52:14;;;;;;;5.43;4.67;;;;;;;15.73;70.78;99217.16;5111606;28;20213;-83
2022/05/17 03:54:41;;;;;;;7.83;5.20;;;;;;;15.75;70.36;99215.25;5111349;28;20221;-83
2022/05/17 03:57:10;;;;;;;8.23;5.10;;;;;;;15.81;70.61;99217.28;5111262;28;20247;-88
2022/05/17 03:59:37;;;;;;;7.30;5.13;;;;;;;15.83;71.00;99217.16;5111630;28;20702;-83
2022/05/17 04:02:04;;;;;;;6.67;5.10;;;;;;;15.86;70.77;99216.88;5111347;28;20205;-89
2022/05/17 04:04:31;;;;;;;5.80;5.07;;;;;;;15.87;71.37;99222.81;5111069;28;20205;-83
2022/05/17 04:06:58;;;;;;;6.50;5.30;;;;;;;15.93;71.15;99217.91;5110816;28;20598;-84
2022/05/17 04:09:25;;;;;;;8.87;5.17;;;;;;;15.96;71.42;99222.78;5110979;28;20209;-89
2022/05/17 04:11:52;;;;;;;6.70;4.77;;;;;;;15.99;71.49;99227.66;5111038;28;20283;-83
2022/05/17 04:14:20;;;;;;;6.13;4.83;;;;;;;16.08;71.38;99226.00;5110853;28;20933;-83
2022/05/17 04:16:47;;;;;;;8.87;5.00;;;;;;;16.17;71.11;99224.31;5110945;28;20637;-83
2022/05/17 04:19:15;;;;;;;6.30;4.70;;;;;;;16.29;71.35;99233.50;5110735;28;20202;-83
2022/05/17 04:21:43;;;;;;;6.33;5.10;;;;;;;16.43;71.35;99227.84;5110867;28;20586;-88
2022/05/17 04:24:10;;;;;;;6.93;4.90;;;;;;;16.54;71.68;99232.00;5110833;28;20725;-88
2022/05/17 04:26:37;;;;;;;9.33;5.17;;;;;;;16.67;70.52;99244.56;5110507;28;20200;-89
2022/05/17 04:29:05;;;;;;;7.63;4.70;;;;;;;16.78;70.58;99234.03;5110629;28;20233;-83
2022/05/17 04:31:33;;;;;;;6.07;5.07;;;;;;;16.93;70.80;99237.75;5110533;28;20208;-90
2022/05/17 04:34:00;;;;;;;7.87;5.30;;;;;;;17.08;69.61;99234.66;5110691;27;20225;-84
2022/05/17 04:36:27;;;;;;;7.53;5.03;;;;;;;17.24;69.31;99239.13;5110332;28;20224;-84
2022/05/17 04:38:54;;;;;;;7.40;4.83;;;;;;;17.46;69.34;99243.81;5110457;27;20224;-90
2022/05/17 04:41:21;;;;;;;6.97;4.63;;;;;;;17.61;68.83;99239.72;5110523;28;20197;-84
2022/05/17 04:43:48;;;;;;;9.57;4.50;;;;;;;17.84;67.53;99237.44;5110537;28;20240;-86
2022/05/17 04:46:14;;;;;;;5.43;4.40;;;;;;;18.05;66.89;99239.66;5110631;28;20667;-89
2022/05/17 04:48:43;;;;;;;5.53;4.50;;;;;;;18.31;66.04;99234.41;5110531;28;20221;-89
2022/05/17 04:51:12;;;;;;;7.23;4.57;;;;;;;18.55;64.32;99235.44;5110358;28;20209;-84
2022/05/17 04:53:40;;;;;;;8.27;4.60;;;;;;;18.82;62.95;99231.00;5110236;28;20310;-92
2022/05/17 04:56:07;;;;;;;7.00;4.37;;;;;;;19.19;64.26;99236.53;5110338;28;20229;-89
2022/05/17 04:58:35;;;;;;;6.27;4.40;;;;;;;19.44;62.20;99236.53;5110685;28;20231;-90
2022/05/17 05:01:02;;;;;;;11.53;4.30;;;;;;;19.63;60.73;99236.16;5110336;28;20202;-82
2022/05/17 05:03:29;;;;;;;10.90;4.60;;;;;;;19.93;61.04;99246.81;5110200;28;20213;-83
2022/05/17 05:05:58;;;;;;;8.50;3.93;;;;;;;20.16;59.23;99244.31;5110169;28;20201;-84
2022/05/17 05:08:24;;;;;;;9.03;4.10;;;;;;;20.39;57.14;99236.59;5110224;28;20224;-85
2022/05/17 05:10:51;;;;;;;6.40;4.33;;;;;;;20.64;55.44;99242.47;5110295;28;20202;-85
2022/05/17 05:13:19;;;;;;;4.73;4.10;;;;;;;20.90;55.33;99247.31;5109643;28;20275;-84
2022/05/17 05:15:46;;;;;;;5.17;3.90;;;;;;;21.13;54.07;99238.72;5110037;28;20221;-83
2022/05/17 05:18:14;;;;;;;5.63;4.07;;;;;;;21.45;54.58;99243.66;5109751;28;20227;-84
2022/05/17 05:20:43;;;;;;;6.43;4.20;;;;;;;21.58;52.75;99237.81;5109873;28;20284;-86
2022/05/17 05:23:12;;;;;;;8.90;4.13;;;;;;;21.83;52.56;99241.00;5109813;28;20225;-85
2022/05/17 05:25:39;;;;;;;4.70;3.70;;;;;;;21.99;51.47;99244.38;5109992;28;20261;-83
2022/05/17 05:28:07;;;;;;;4.87;4.00;;;;;;;22.27;52.16;99253.19;5110081;28;20787;-84
2022/05/17 05:30:34;;;;;;;5.37;3.80;;;;;;;22.55;52.01;99249.91;5110016;28;20210;-83
2022/05/17 05:33:02;;;;;;;5.30;3.80;;;;;;;22.57;48.91;99243.53;5109796;28;20229;-83
2022/05/17 05:35:29;;;;;;;6.17;4.27;;;;;;;22.70;53.49;99245.47;5109856;28;20355;-86
2022/05/17 05:37:56;;;;;;;6.03;3.87;;;;;;;23.05;49.68;99250.81;5109889;28;20238;-87
2022/05/17 05:40:25;;;;;;;6.60;4.40;;;;;;;23.31;49.96;99247.63;5109896;28;20205;-85
2022/05/17 05:42:53;;;;;;;5.93;3.80;;;;;;;23.60;48.36;99254.47;5110696;28;20216;-85
2022/05/17 05:45:21;;;;;;;4.32;3.92;;;;;;;23.75;49.24;99249.16;5114033;28;20201;-85
2022/05/17 05:47:47;;;;;;;7.57;3.90;;;;;;;23.91;46.97;99248.03;5113749;28;20603;-83
2022/05/17 05:50:15;;;;;;;6.82;3.60;;;;;;;24.00;46.90;99246.88;5113847;28;20284;-84
2022/05/17 05:52:42;;;;;;;5.15;4.45;;;;;;;24.18;46.23;99252.38;5114099;28;20226;-84
2022/05/17 05:55:12;;;;;;;4.90;3.55;;;;;;;24.34;46.47;99246.00;5113540;28;20212;-85
2022/05/17 05:57:40;;;;;;;8.18;3.90;;;;;;;24.51;45.96;99251.72;5113630;28;20256;-83
2022/05/17 06:00:08;;;;;;;6.60;3.65;;;;;;;24.68;44.88;99251.38;5113928;28;20217;-83
2022/05/17 06:02:35;;;;;;;8.63;3.58;;;;;;;24.71;44.58;99243.13;5113419;28;20225;-82
2022/05/17 06:05:02;;;;;;;12.13;3.78;;;;;;;24.82;44.93;99242.53;5113321;27;20379;-85
2022/05/17 06:07:29;;;;;;;6.63;3.53;;;;;;;25.03;44.68;99244.97;5113736;28;20694;-82
2022/05/17 06:09:56;;;;;;;4.20;3.53;;;;;;;25.10;44.01;99239.72;5113209;28;20201;-86
2022/05/17 06:12:23;;;;;;;5.60;3.80;;;;;;;25.24;44.28;99235.34;5113147;28;20217;-84
2022/05/17 06:14:51;;;;;;;9.48;3.55;;;;;;;25.42;43.34;99235.50;5113241;28;20574;-83
2022/05/17 06:17:23;;;;;;;6.60;3.70;;;;;;;25.39;44.30;99238.53;5112857;28;20233;-83
2022/05/17 06:19:50;;;;;;;5.13;3.70;;;;;;;25.55;44.27;99239.13;5113055;28;20201;-86
2022/05/17 06:22:17;;;;;;;5.72;3.40;;;;;;;25.51;43.08;99242.16;5113247;28;20214;-85
2022/05/17 06:24:45;;;;;;;4.88;3.47;;;;;;;25.56;44.51;99238.13;5112838;27;20200;-84
2022/05/17 06:27:12;;;;;;;6.28;3.75;;;;;;;25.86;44.20;99249.78;5112999;28;20221;-83
2022/05/17 06:29:39;;;;;;;5.90;3.42;;;;;;;26.12;43.55;99248.88;5112908;28;20591;-86
2022/05/17 06:32:09;;;;;;;7.05;4.18;;;;;;;26.13;42.83;99245.25;5112855;28;20206;-84
2022/05/17 06:34:36;;;;;;;7.55;3.67;;;;;;;26.25;42.13;99252.44;5112833;28;20627;-83
2022/05/17 06:37:04;;;;;;;6.07;3.50;;;;;;;26.66;43.57;99259.13;5112667;28;20302;-84
2022/05/17 06:39:30;;;;;;;5.07;3.55;;;;;;;26.84;42.13;99252.13;5112540;28;20189;-86
2022/05/17 06:41:57;;;;;;;7.13;4.00;;;;;;;26.56;42.05;99246.47;5112517;28;20193;-83
2022/05/17 06:44:24;;;;;;;6.85;4.00;;;;;;;26.75;44.69;99245.53;5112569;28;20189;-83
2022/05/17 06:46:52;;;;;;;3.88;3.50;;;;;;;26.94;44.06;99249.06;5112400;27;20286;-83
2022/05/17 06:49:20;;;;;;;8.80;4.00;;;;;;;27.40;43.61;99239.19;5112374;28;20198;-85
2022/05/17 06:51:47;;;;;;;6.15;3.80;;;;;;;27.72;43.26;99242.50;5112471;28;20668;-82
2022/05/17 06:54:14;;;;;;;5.57;3.80;;;;;;;28.05;41.96;99242.19;5112576;28;20198;-84
2022/05/17 06:56:41;;;;;;;6.75;3.97;;;;;;;28.18;42.14;99242.00;5112477;28;20229;-84
2022/05/17 06:59:08;;;;;;;4.63;3.83;;;;;;;28.34;39.02;99234.53;5112271;28;20229;-85
2022/05/17 07:01:35;;;;;;;4.72;3.47;;;;;;;28.49;38.75;99242.84;5112340;28;20197;-82
2022/05/17 07:04:02;;;;;;;6.88;3.70;;;;;;;28.85;39.88;99235.84;5112312;28;20225;-84
2022/05/17 07:06:30;;;;;;;5.57;3.53;;;;;;;29.08;38.64;99241.16;5111900;28;20205;-84
2022/05/17 07:08:57;;;;;;;6.20;3.80;;;;;;;29.40;39.94;99232.91;5111920;28;20244;-83
2022/05/17 07:14:08;;;;;;;5.68;3.72;;;;;;;28.95;38.40;99237.94;5112069;28;20310;-82
2022/05/17 07:16:35;;;;;;;4.10;3.70;;;;;;;28.72;39.20;99230.78;5111719;27;20680;-83
2022/05/17 07:19:02;;;;;;;3.92;3.40;;;;;;;28.78;38.19;99235.16;5111799;28;20213;-84
2022/05/17 07:21:31;;;;;;;5.03;3.80;;;;;;;29.19;37.91;99236.16;5111599;28;20225;-82
2022/05/17 07:23:57;;;;;;;8.68;3.85;;;;;;;29.29;38.36;99237.19;5111834;28;20711;-85
2022/05/17 07:26:24;;;;;;;6.13;3.72;;;;;;;29.59;39.58;99240.72;5111663;28;20197;-85
2022/05/17 07:28:51;;;;;;;5.38;3.45;;;;;;;29.95;36.66;99247.53;5111887;28;20221;-86
2022/05/17 07:31:18;;;;;;;4.55;3.65;;;;;;;30.15;38.31;99255.06;5111523;28;20204;-85
2022/05/17 07:33:44;;;;;;;6.00;3.88;;;;;;;30.41;37.50;99246.59;5111748;28;20221;-83
2022/05/17 07:36:12;;;;;;;5.32;3.92;;;;;;;30.34;38.26;99248.59;5111648;28;20224;-85
2022/05/17 07:38:40;;;;;;;6.38;3.70;;;;;;;30.50;37.82;99247.00;5111302;28;20256;-84
2022/05/17 07:41:07;;;;;;;6.03;4.13;;;;;;;30.66;37.23;99256.81;5111867;28;20221;-85
2022/05/17 07:43:35;;;;;;;5.53;3.75;;;;;;;30.74;36.44;99246.88;5111712;28;20253;-83
2022/05/17 07:46:02;;;;;;;5.55;3.92;;;;;;;30.77;36.71;99257.75;5111420;28;20204;-85
2022/05/17 07:48:29;;;;;;;4.72;4.22;;;;;;;30.81;37.64;99253.66;5111225;28;20221;-83
2022/05/17 07:50:55;;;;;;;8.98;4.25;;;;;;;30.83;35.50;99245.47;5111398;28;20197;-83
2022/05/17 07:53:23;;;;;;;7.60;4.38;;;;;;;30.85;36.12;99243.41;5110875;28;20217;-86
2022/05/17 07:55:52;;;;;;;6.35;4.03;;;;;;;31.29;38.66;99241.69;5111251;28;20266;-83
2022/05/17 07:58:20;;;;;;;8.07;4.50;;;;;;;31.55;37.29;99239.44;5111406;28;20233;-83
2022/05/17 08:00:47;;;;;;;6.00;4.40;;;;;;;31.49;37.95;99238.56;5111171;28;20207;-85
2022/05/17 08:03:16;;;;;;;7.18;4.25;;;;;;;31.87;35.94;99238.78;5111065;27;20237;-83
2022/05/17 08:05:44;;;;;;;7.43;4.10;;;;;;;31.90;35.79;99238.28;5110741;28;20277;-82
2022/05/17 08:08:10;;;;;;;6.43;4.13;;;;;;;31.86;35.75;99230.06;5111416;28;20719;-83
2022/05/17 08:10:39;;;;;;;7.32;4.03;;;;;;;32.09;36.09;99229.03;5110699;28;20216;-83
2022/05/17 08:13:08;;;;;;;5.82;4.25;;;;;;;32.39;35.96;99230.38;5111211;28;20423;-84
2022/05/17 08:15:35;;;;;;;6.25;4.13;;;;;;;32.31;34.06;99228.16;5110841;28;20609;-86
2022/05/17 08:18:03;;;;;;;7.38;4.15;;;;;;;32.37;34.66;99224.53;5110901;28;20229;-83
2022/05/17 08:20:30;;;;;;;8.13;4.13;;;;;;;32.45;35.18;99218.81;5110600;28;20201;-83
2022/05/17 08:22:57;;;;;;;6.65;4.10;;;;;;;32.39;34.12;99219.78;5111086;28;20221;-84
2022/05/17 08:28:10;;;;;;;7.38;3.53;;;;;;;32.69;33.88;99225.34;5110996;28;20220;-86
2022/05/17 08:30:38;;;;;;;5.50;4.15;;;;;;;32.84;34.61;99221.22;5110592;28;20201;-85
2022/05/17 08:33:17;;;;;;;5.93;3.75;;;;;;;33.03;34.94;99214.53;5110939;28;20244;-83
2022/05/17 08:35:49;;;;;;;6.60;3.70;;;;;;;33.16;34.50;99212.47;5110969;28;20197;-85
2022/05/17 08:38:29;;;;;;;6.40;3.70;;;;;;;33.22;33.05;99222.03;5110776;28;20649;-82
2022/05/17 08:41:11;;;;;;;5.47;3.78;;;;;;;33.19;33.00;99222.56;5110322;28;20678;-87
2022/05/17 08:43:49;;;;;;;6.18;3.92;;;;;;;33.02;32.93;99218.25;5110191;28;20735;-85
2022/05/17 08:46:25;;;;;;;6.05;3.95;;;;;;;33.33;32.11;99219.19;5110643;28;20279;-85
2022/05/17 08:48:55;;;;;;;5.90;3.97;;;;;;;33.42;32.37;99211.56;5110300;28;20311;-83
2022/05/17 08:51:41;;;;;;;9.23;3.80;;;;;;;33.61;33.78;99213.81;5110367;28;20254;-85
2022/05/17 08:54:12;;;;;;;6.15;3.95;;;;;;;33.69;31.71;99216.75;5110061;28;20231;-85
2022/05/17 08:56:45;;;;;;;8.45;4.20;;;;;;;33.55;32.66;99213.78;5110185;28;20205;-85
2022/05/17 08:59:18;;;;;;;5.70;3.75;;;;;;;33.49;33.54;99216.66;5110011;28;20237;-82
2022/05/17 09:01:47;;;;;;;4.25;3.72;;;;;;;33.66;33.12;99211.16;5110283;28;20197;-83
2022/05/17 09:04:31;;;;;;;4.88;3.90;;;;;;;33.56;33.10;99212.72;5110148;28;20194;-83
2022/05/17 09:07:11;;;;;;;5.72;4.20;;;;;;;33.98;32.55;99208.38;5110242;28;20205;-85
2022/05/17 09:09:49;;;;;;;7.07;3.50;;;;;;;34.23;31.63;99207.63;5110066;28;20262;-84
2022/05/17 09:12:25;;;;;;;6.70;3.95;;;;;;;34.45;30.20;99207.41;5110238;28;20225;-85
2022/05/17 09:14:57;;;;;;;5.88;3.90;;;;;;;34.65;31.34;99211.97;5109746;28;20210;-82
2022/05/17 09:17:25;;;;;;;6.18;3.92;;;;;;;34.69;33.03;99210.34;5110269;28;20705;-84
2022/05/17 09:19:53;;;;;;;6.20;3.83;;;;;;;34.87;31.38;99209.78;5114393;28;20212;-82
2022/05/17 09:22:21;;;;;;;5.57;3.92;;;;;;;35.23;32.29;99207.13;5114549;28;20737;-85
2022/05/17 09:24:55;;;;;;;7.50;3.55;;;;;;;35.11;30.61;99211.91;5114255;28;20205;-84
2022/05/17 09:27:26;;;;;;;7.35;3.72;;;;;;;35.21;29.23;99208.44;5114323;28;20276;-84
2022/05/17 09:30:03;;;;;;;7.65;3.65;;;;;;;35.25;30.76;99199.66;5113730;28;20201;-84
2022/05/17 09:32:32;;;;;;;12.30;3.80;;;;;;;35.45;28.77;99203.31;5114326;28;20239;-84
2022/05/17 09:35:01;;;;;;;6.63;3.88;;;;;;;34.65;30.19;99201.34;5113770;28;20639;-85
2022/05/17 09:37:34;;;;;;;3.80;3.50;;;;;;;34.65;29.97;99190.72;5113967;28;20228;-85
2022/05/17 09:40:04;;;;;;;3.90;3.20;;;;;;;34.74;29.65;99193.63;5113884;28;20201;-83
2022/05/17 09:42:35;;;;;;;6.82;3.70;;;;;;;35.03;29.53;99193.84;5114030;28;20243;-83
2022/05/17 09:45:07;;;;;;;3.83;3.10;;;;;;;35.08;28.59;99191.19;5113931;28;20240;-84
2022/05/17 09:47:41;;;;;;;6.15;3.78;;;;;;;35.14;32.01;99188.28;5114106;28;20227;-83
2022/05/17 09:53:03;;;;;;;6.43;3.42;;;;;;;35.40;28.24;99192.69;5114045;28;20225;-82
2022/05/17 09:55:31;;;;;;;6.65;3.28;;;;;;;35.46;28.43;99186.28;5113538;28;20202;-84
2022/05/17 09:58:01;;;;;;;6.20;3.28;;;;;;;35.58;29.46;99186.81;5113597;28;20289;-83
2022/05/17 10:00:40;;;;;;;5.18;3.50;;;;;;;35.40;27.89;99177.53;5113390;28;20204;-85
2022/05/17 10:03:26;;;;;;;3.92;3.42;;;;;;;35.78;28.39;99181.38;5113570;28;20643;-82
2022/05/17 10:05:58;;;;;;;7.43;3.40;;;;;;;35.66;26.41;99183.56;5113329;28;20208;-84
2022/05/17 10:08:31;;;;;;;4.97;3.22;;;;;;;35.48;26.59;99184.94;5113320;28;20223;-84
2022/05/17 10:11:16;;;;;;;5.53;3.47;;;;;;;34.72;26.65;99175.28;5113269;28;20205;-80
2022/05/17 10:13:58;;;;;;;9.10;3.53;;;;;;;34.11;26.93;99170.72;5113722;28;20312;-84
2022/05/17 10:16:34;;;;;;;3.80;2.97;;;;;;;33.99;28.80;99163.00;5113206;28;20695;-82
2022/05/17 10:19:07;;;;;;;7.03;3.40;;;;;;;34.08;28.72;99162.50;5113049;28;20255;-84
2022/05/17 10:21:44;;;;;;;6.75;3.38;;;;;;;34.39;30.65;99161.47;5113399;28;20266;-81
2022/05/17 10:24:20;;;;;;;6.20;3.40;;;;;;;34.30;27.67;99160.41;5113110;28;20304;-85
2022/05/17 10:26:52;;;;;;;4.60;3.30;;;;;;;34.29;28.44;99156.16;5112999;28;20209;-83
2022/05/17 10:29:29;;;;;;;6.03;3.60;;;;;;;34.31;28.96;99162.00;5112844;28;20196;-84
2022/05/17 10:32:05;;;;;;;8.35;3.50;;;;;;;34.43;29.39;99157.22;5112472;28;20209;-84
2022/05/17 10:34:46;;;;;;;5.22;3.38;;;;;;;34.30;28.12;99157.75;5112908;28;20592;-81
2022/05/17 10:37:16;;;;;;;5.25;3.80;;;;;;;34.19;30.72;99148.19;5112987;28;20217;-82
2022/05/17 10:39:51;;;;;;;6.78;3.97;;;;;;;34.20;29.81;99141.81;5112822;28;20229;-84
2022/05/17 10:42:18;;;;;;;9.50;4.20;;;;;;;34.46;30.13;99140.75;5112888;28;20418;-82
2022/05/17 10:44:50;;;;;;;9.63;4.32;;;;;;;34.69;29.60;99143.94;5112622;28;20206;-82
2022/05/17 10:47:28;;;;;;;5.45;3.80;;;;;;;34.70;27.77;99143.69;5112881;28;20308;-81
2022/05/17 10:50:30;;;;;;;6.43;4.10;;;;;;;34.83;28.72;99139.69;5112831;28;20555;-81
2022/05/17 10:53:14;;;;;;;9.57;3.97;;;;;;;34.62;28.35;99130.16;5112906;28;20741;-84
2022/05/17 10:55:48;;;;;;;5.88;4.18;;;;;;;34.80;28.27;99126.94;5112904;28;20197;-82
2022/05/17 10:58:27;;;;;;;4.78;3.90;;;;;;;35.04;31.70;99124.47;5112679;28;20236;-80
2022/05/17 11:00:59;;;;;;;4.82;4.00;;;;;;;34.92;28.16;99116.81;5112546;28;20201;-83
2022/05/17 11:04:03;;;;;;;5.78;4.40;;;;;;;35.01;28.24;99124.22;5112327;28;20228;-82
2022/05/17 11:06:35;;;;;;;5.55;4.10;;;;;;;35.03;28.31;99117.56;5099459;28;20280;-82
2022/05/17 11:09:12;;;;;;;8.07;4.97;;;;;;;34.57;29.30;99112.38;5111962;27;20724;-82
2022/05/17 11:11:59;;;;;;;8.05;4.40;;;;;;;34.84;29.66;99114.69;5112065;28;20224;-83
2022/05/17 11:14:31;;;;;;;5.25;4.30;;;;;;;34.87;29.82;99103.53;5112299;28;20197;-82
2022/05/17 11:17:05;;;;;;;8.63;4.47;;;;;;;35.10;28.87;99109.34;5112000;28;20236;-82
2022/05/17 11:19:40;;;;;;;6.55;4.75;;;;;;;34.94;28.18;99100.59;5112000;28;20263;-82
2022/05/17 11:22:12;;;;;;;7.40;4.22;;;;;;;35.08;30.18;99090.19;5111909;28;20204;-82
2022/05/17 11:25:14;;;;;;;16.02;4.60;;;;;;;34.95;28.86;99094.22;5111882;28;20198;-82
2022/05/17 11:27:58;;;;;;;9.57;4.35;;;;;;;34.65;29.23;99095.09;5101335;28;20225;-82
2022/05/17 11:30:29;;;;;;;7.00;4.60;;;;;;;34.60;29.30;99087.13;5111693;28;20201;-84
2022/05/17 11:33:25;;;;;;;5.10;4.60;;;;;;;34.51;30.32;99089.50;5111780;28;20233;-83
2022/05/17 11:35:56;;;;;;;5.57;4.22;;;;;;;34.52;28.54;99080.47;5112207;28;20203;-83
2022/05/17 11:38:44;;;;;;;6.60;4.40;;;;;;;34.26;29.11;99087.66;5111536;27;20668;-82
2022/05/17 11:41:17;;;;;;;8.73;4.70;;;;;;;34.11;29.38;99077.84;5110976;28;20209;-83
2022/05/17 11:43:48;;;;;;;5.68;4.20;;;;;;;34.10;29.38;99073.63;5112057;28;20279;-82
2022/05/17 11:46:54;;;;;;;5.05;4.00;;;;;;;34.35;30.22;99062.16;5111944;28;20205;-83
2022/05/17 11:49:47;;;;;;;9.23;4.18;;;;;;;34.14;29.24;99063.25;5109368;28;20255;-83
2022/05/17 11:52:31;;;;;;;10.93;4.20;;;;;;;33.80;30.44;99066.41;5111729;28;20243;-83
2022/05/17 11:55:02;;;;;;;5.70;4.10;;;;;;;34.17;29.44;99057.41;5111261;28;20623;-81
2022/05/17 11:58:05;;;;;;;7.28;4.32;;;;;;;34.24;28.66;99044.69;5111103;28;20217;-82
2022/05/17 12:00:43;;;;;;;4.47;3.97;;;;;;;34.40;29.25;99040.16;5111074;28;20605;-83